Time;durP1;ratioP1;P1;durP2;ratioP2;P2;SDS_P1;SDS_P2;PMS_P1;PMS_P2;Temp;Humidity;BMP_temperature;BMP_pressure;BME280_temperature;BME280_humidity;BME280_pressure;Samples;Min_cycle;Max_cycle;Signal;HPM_P1;HPM_P2
2021/09/13 00:00:17;;;;;;;5.35;4.57;;;;;;;;;;4771784;30;20059;-84
2021/09/13 00:02:43;;;;;;;6.28;4.50;;;;;;;;;;4773650;30;20088;-84
2021/09/13 00:05:08;;;;;;;6.95;4.60;;;;;;;;;;4788953;29;20035;-84
2021/09/13 00:07:34;;;;;;;6.38;4.68;;;;;;;;;;4760509;30;20032;-87
2021/09/13 00:09:59;;;;;;;6.05;4.78;;;;;;;;;;4752804;30;20035;-87
2021/09/13 00:12:25;;;;;;;6.82;4.97;;;;;;;;;;4762110;29;20100;-84
2021/09/13 00:14:50;;;;;;;6.75;4.95;;;;;;;;;;4777809;30;20058;-83
2021/09/13 00:17:16;;;;;;;7.35;5.00;;;;;;;;;;4787710;30;20125;-84
2021/09/13 00:19:41;;;;;;;8.23;5.00;;;;;;;;;;4774120;30;20051;-84
2021/09/13 00:22:07;;;;;;;7.05;5.20;;;;;;;;;;4773517;30;20043;-86
2021/09/13 00:24:32;;;;;;;7.43;5.63;;;;;;;;;;4777394;30;20039;-85
2021/09/13 00:26:58;;;;;;;9.35;5.60;;;;;;;;;;4773396;30;20046;-83
2021/09/13 00:29:23;;;;;;;6.57;5.43;;;;;;;;;;4775508;29;20508;-84
2021/09/13 00:31:49;;;;;;;7.20;5.45;;;;;;;;;;4789292;30;20040;-84
2021/09/13 00:34:14;;;;;;;8.23;5.78;;;;;;;;;;4772793;30;20114;-83
2021/09/13 00:36:40;;;;;;;6.45;5.25;;;;;;;;;;4789862;30;20081;-84
2021/09/13 00:39:05;;;;;;;7.97;5.50;;;;;;;;;;4774170;30;20043;-84
2021/09/13 00:41:31;;;;;;;8.35;5.40;;;;;;;;;;4785085;30;20099;-86
2021/09/13 00:43:58;;;;;;;6.40;5.68;;;;;;;;;;4768406;30;20036;-84
2021/09/13 00:46:24;;;;;;;6.85;5.75;;;;;;;;;;4782719;30;20110;-84
2021/09/13 00:48:49;;;;;;;7.55;5.20;;;;;;;;;;4762444;30;20139;-84
2021/09/13 00:51:15;;;;;;;8.63;5.68;;;;;;;;;;4787567;30;20042;-84
2021/09/13 00:53:40;;;;;;;7.32;6.00;;;;;;;;;;4772687;30;20469;-84
2021/09/13 00:56:07;;;;;;;9.27;5.70;;;;;;;;;;4775919;30;20047;-85
2021/09/13 00:58:35;;;;;;;11.95;6.60;;;;;;;;;;4786100;29;20035;-84
2021/09/13 01:01:01;;;;;;;8.40;5.82;;;;;;;;;;4768357;30;20509;-86
2021/09/13 01:03:27;;;;;;;6.57;5.65;;;;;;;;;;4781734;30;20039;-87
2021/09/13 01:05:52;;;;;;;9.38;6.40;;;;;;;;;;4784625;30;20403;-83
2021/09/13 01:08:18;;;;;;;10.25;5.55;;;;;;;;;;4784060;30;20504;-84
2021/09/13 01:10:47;;;;;;;7.78;5.63;;;;;;;;;;4774057;30;20027;-83
2021/09/13 01:13:12;;;;;;;8.25;5.47;;;;;;;;;;4788367;30;20035;-85
2021/09/13 01:15:38;;;;;;;7.28;5.50;;;;;;;;;;4756958;30;20381;-87
2021/09/13 01:18:04;;;;;;;8.57;5.40;;;;;;;;;;4792136;29;20042;-84
2021/09/13 01:20:29;;;;;;;7.95;5.75;;;;;;;;;;4764810;30;20035;-87
2021/09/13 01:22:55;;;;;;;7.45;5.60;;;;;;;;;;4755976;30;20040;-84
2021/09/13 01:25:20;;;;;;;9.63;5.32;;;;;;;;;;4771583;30;20172;-84
2021/09/13 01:27:46;;;;;;;7.45;5.05;;;;;;;;;;4764948;30;20053;-84
2021/09/13 01:30:12;;;;;;;8.02;5.82;;;;;;;;;;4787767;30;20035;-84
2021/09/13 01:32:37;;;;;;;6.03;5.43;;;;;;;;;;4789021;30;20066;-83
2021/09/13 01:35:03;;;;;;;6.80;5.22;;;;;;;;;;4773320;30;20046;-84
2021/09/13 01:37:28;;;;;;;6.45;4.90;;;;;;;;;;4772160;30;20406;-84
2021/09/13 01:39:54;;;;;;;5.97;4.63;;;;;;;;;;4773368;30;20096;-83
2021/09/13 01:42:20;;;;;;;5.60;4.75;;;;;;;;;;4785119;30;20329;-86
2021/09/13 01:44:45;;;;;;;5.93;5.00;;;;;;;;;;4789004;30;20042;-84
2021/09/13 01:47:11;;;;;;;9.73;5.15;;;;;;;;;;4788115;30;20095;-84
2021/09/13 01:49:36;;;;;;;6.25;4.78;;;;;;;;;;4769594;30;20032;-84
2021/09/13 01:52:02;;;;;;;6.57;4.00;;;;;;;;;;4770770;30;20076;-83
2021/09/13 01:54:27;;;;;;;7.20;5.28;;;;;;;;;;4756896;30;20066;-86
2021/09/13 01:56:53;;;;;;;9.40;5.45;;;;;;;;;;4774744;30;20047;-84
2021/09/13 01:59:18;;;;;;;8.77;5.53;;;;;;;;;;4756292;30;20517;-87
2021/09/13 02:01:43;;;;;;;9.55;5.80;;;;;;;;;;4766210;30;20043;-84
2021/09/13 02:04:10;;;;;;;11.93;6.00;;;;;;;;;;4788374;30;20381;-85
2021/09/13 02:06:35;;;;;;;11.30;5.53;;;;;;;;;;4769677;30;20041;-85
2021/09/13 02:09:00;;;;;;;7.13;5.57;;;;;;;;;;4768460;30;20032;-84
2021/09/13 02:11:26;;;;;;;7.75;5.43;;;;;;;;;;4757225;30;20038;-86
2021/09/13 02:13:51;;;;;;;8.38;5.53;;;;;;;;;;4772296;30;20043;-86
2021/09/13 02:16:17;;;;;;;8.02;5.15;;;;;;;;;;4757628;30;20061;-84
2021/09/13 02:18:42;;;;;;;7.53;5.72;;;;;;;;;;4771475;30;20065;-86
2021/09/13 02:21:08;;;;;;;11.60;5.50;;;;;;;;;;4786229;30;20994;-84
2021/09/13 02:23:33;;;;;;;7.40;6.03;;;;;;;;;;4772098;30;20491;-84
2021/09/13 02:25:59;;;;;;;8.13;5.47;;;;;;;;;;4788050;30;20428;-86
2021/09/13 02:28:24;;;;;;;10.02;5.60;;;;;;;;;;4768785;30;20041;-85
2021/09/13 02:30:50;;;;;;;6.93;5.53;;;;;;;;;;4786863;29;20035;-86
2021/09/13 02:33:17;;;;;;;7.75;5.03;;;;;;;;;;4786893;30;20039;-84
2021/09/13 02:35:43;;;;;;;6.32;5.05;;;;;;;;;;4786879;30;20525;-84
2021/09/13 02:38:08;;;;;;;7.35;4.85;;;;;;;;;;4788281;30;20084;-85
2021/09/13 02:40:34;;;;;;;6.28;5.00;;;;;;;;;;4787204;29;20049;-84
2021/09/13 02:42:59;;;;;;;7.85;5.60;;;;;;;;;;4734757;30;20054;-86
2021/09/13 02:45:25;;;;;;;8.25;5.20;;;;;;;;;;4772493;30;20130;-86
2021/09/13 02:47:50;;;;;;;6.95;5.45;;;;;;;;;;4772150;30;20507;-84
2021/09/13 02:50:17;;;;;;;8.10;5.63;;;;;;;;;;4769663;30;20035;-85
2021/09/13 02:52:42;;;;;;;8.85;5.00;;;;;;;;;;4768276;30;20059;-84
2021/09/13 02:55:08;;;;;;;8.70;5.25;;;;;;;;;;4770442;30;20037;-84
2021/09/13 02:57:33;;;;;;;8.05;5.82;;;;;;;;;;4756629;30;20125;-85
2021/09/13 02:59:59;;;;;;;7.85;5.90;;;;;;;;;;4756717;30;20112;-84
2021/09/13 03:02:24;;;;;;;8.27;5.70;;;;;;;;;;4787458;30;20458;-84
2021/09/13 03:04:50;;;;;;;8.43;5.75;;;;;;;;;;4757741;30;20047;-84
2021/09/13 03:07:15;;;;;;;8.02;4.95;;;;;;;;;;4773288;30;20071;-84
2021/09/13 03:09:41;;;;;;;7.68;5.55;;;;;;;;;;4769323;30;20050;-84
2021/09/13 03:12:08;;;;;;;8.13;5.03;;;;;;;;;;4750233;30;20031;-85
2021/09/13 03:14:33;;;;;;;7.20;4.80;;;;;;;;;;4785867;29;20050;-87
2021/09/13 03:16:59;;;;;;;7.70;5.30;;;;;;;;;;4771524;30;20036;-86
2021/09/13 03:19:25;;;;;;;9.73;5.32;;;;;;;;;;4764844;30;20059;-84
2021/09/13 03:21:50;;;;;;;11.05;5.90;;;;;;;;;;4783724;30;20491;-86
2021/09/13 03:24:17;;;;;;;6.50;5.13;;;;;;;;;;4772091;30;20043;-84
2021/09/13 03:26:42;;;;;;;5.35;4.25;;;;;;;;;;4794732;29;20110;-86
2021/09/13 03:29:07;;;;;;;6.65;4.55;;;;;;;;;;4770917;30;20126;-84
2021/09/13 03:31:33;;;;;;;6.03;4.10;;;;;;;;;;4754020;30;20057;-84
2021/09/13 03:33:59;;;;;;;6.20;4.43;;;;;;;;;;4769009;30;20710;-86
2021/09/13 03:36:24;;;;;;;5.53;4.05;;;;;;;;;;4757121;30;20031;-84
2021/09/13 03:38:49;;;;;;;6.43;4.85;;;;;;;;;;4760120;30;20031;-85
2021/09/13 03:41:15;;;;;;;5.50;4.35;;;;;;;;;;4770722;30;20044;-84
2021/09/13 03:43:41;;;;;;;5.53;4.20;;;;;;;;;;4789915;30;20117;-84
2021/09/13 03:46:06;;;;;;;6.75;4.80;;;;;;;;;;4773178;30;20574;-85
2021/09/13 03:48:32;;;;;;;7.50;5.45;;;;;;;;;;4775023;30;20040;-83
2021/09/13 03:50:57;;;;;;;7.65;5.30;;;;;;;;;;4784197;30;20043;-86
2021/09/13 03:53:23;;;;;;;9.00;5.85;;;;;;;;;;4788511;30;20070;-84
2021/09/13 03:55:48;;;;;;;7.68;5.47;;;;;;;;;;4757197;30;20036;-86
2021/09/13 03:58:14;;;;;;;6.40;4.93;;;;;;;;;;4758599;30;20043;-85
2021/09/13 04:00:40;;;;;;;6.72;5.03;;;;;;;;;;4771236;30;20051;-86
2021/09/13 04:03:10;;;;;;;6.25;4.63;;;;;;;;;;4789808;30;20038;-85
2021/09/13 04:05:41;;;;;;;6.32;4.72;;;;;;;;;;4758074;30;20073;-84
2021/09/13 04:08:14;;;;;;;5.78;4.32;;;;;;;;;;4790087;29;20090;-86
2021/09/13 04:11:07;;;;;;;6.22;4.88;;;;;;;;;;4774503;30;20036;-84
2021/09/13 04:13:25;;;;;;;7.00;4.40;;;;;;;;;;4788475;30;20129;-84
2021/09/13 04:15:50;;;;;;;7.47;4.88;;;;;;;;;;4758147;30;20070;-84
2021/09/13 04:18:16;;;;;;;7.72;4.47;;;;;;;;;;4785877;30;20035;-84
2021/09/13 04:20:41;;;;;;;5.93;4.30;;;;;;;;;;4788377;30;20031;-86
2021/09/13 04:23:07;;;;;;;6.72;4.45;;;;;;;;;;4773803;30;20563;-84
2021/09/13 04:25:32;;;;;;;7.72;4.35;;;;;;;;;;4773496;30;20088;-84
2021/09/13 04:27:58;;;;;;;5.38;3.95;;;;;;;;;;4773693;30;20063;-84
2021/09/13 04:30:25;;;;;;;8.20;4.07;;;;;;;;;;4770816;30;20035;-84
2021/09/13 04:32:51;;;;;;;6.07;3.92;;;;;;;;;;4773193;30;20200;-84
2021/09/13 04:35:16;;;;;;;6.68;4.40;;;;;;;;;;4763142;30;20570;-86
2021/09/13 04:37:42;;;;;;;6.47;4.10;;;;;;;;;;4760548;30;20077;-86
2021/09/13 04:40:08;;;;;;;5.15;3.97;;;;;;;;;;4773449;30;20043;-87
2021/09/13 04:42:33;;;;;;;6.28;3.65;;;;;;;;;;4773213;30;20039;-84
2021/09/13 04:44:58;;;;;;;5.53;3.72;;;;;;;;;;4791104;30;20407;-85
2021/09/13 04:47:24;;;;;;;4.43;3.65;;;;;;;;;;4761000;30;20100;-84
2021/09/13 04:49:49;;;;;;;5.97;3.97;;;;;;;;;;4763114;30;20044;-86
2021/09/13 04:52:15;;;;;;;5.75;3.70;;;;;;;;;;4755569;30;20039;-84
2021/09/13 04:54:40;;;;;;;5.20;3.50;;;;;;;;;;4787027;30;20051;-85
2021/09/13 04:57:05;;;;;;;4.82;3.72;;;;;;;;;;4771714;30;20039;-86
2021/09/13 04:59:31;;;;;;;5.07;3.85;;;;;;;;;;4786825;29;20495;-85
2021/09/13 05:01:56;;;;;;;5.20;3.70;;;;;;;;;;4757377;30;20408;-84
2021/09/13 05:04:22;;;;;;;4.90;3.65;;;;;;;;;;4762609;30;20039;-84
2021/09/13 05:06:47;;;;;;;5.38;4.00;;;;;;;;;;4772627;30;20146;-86
2021/09/13 05:09:12;;;;;;;4.72;3.58;;;;;;;;;;4787630;30;20047;-84
2021/09/13 05:11:38;;;;;;;4.90;3.65;;;;;;;;;;4757222;30;20079;-86
2021/09/13 05:14:03;;;;;;;4.88;3.70;;;;;;;;;;4775340;30;20036;-86
2021/09/13 05:16:31;;;;;;;4.90;3.75;;;;;;;;;;4773183;30;20499;-86
2021/09/13 05:18:57;;;;;;;5.50;3.75;;;;;;;;;;4792091;29;20436;-84
2021/09/13 05:21:22;;;;;;;5.28;4.07;;;;;;;;;;4789501;30;20031;-86
2021/09/13 05:23:48;;;;;;;5.95;3.90;;;;;;;;;;4785164;30;20126;-87
2021/09/13 05:26:13;;;;;;;5.18;3.92;;;;;;;;;;4758880;29;20038;-87
2021/09/13 05:28:38;;;;;;;5.78;3.90;;;;;;;;;;4758883;30;20039;-86
2021/09/13 05:31:04;;;;;;;5.80;3.58;;;;;;;;;;4771011;30;20065;-87
2021/09/13 05:33:31;;;;;;;5.70;3.88;;;;;;;;;;4757263;30;20100;-85
2021/09/13 05:35:56;;;;;;;4.72;3.97;;;;;;;;;;4771843;30;20459;-84
2021/09/13 05:38:22;;;;;;;4.60;3.88;;;;;;;;;;4771028;30;20059;-86
2021/09/13 05:40:47;;;;;;;5.32;3.97;;;;;;;;;;4758086;30;20407;-84
2021/09/13 05:43:12;;;;;;;7.18;4.80;;;;;;;;;;4770233;30;20045;-86
2021/09/13 05:45:38;;;;;;;6.93;4.95;;;;;;;;;;4770629;29;20045;-86
2021/09/13 05:48:04;;;;;;;6.00;4.72;;;;;;;;;;4767521;30;20461;-84
2021/09/13 05:50:30;;;;;;;6.65;4.50;;;;;;;;;;4785259;29;20039;-84
2021/09/13 05:52:55;;;;;;;5.10;4.10;;;;;;;;;;4756630;30;20134;-84
2021/09/13 05:55:21;;;;;;;5.60;3.92;;;;;;;;;;4785234;29;20494;-84
2021/09/13 05:57:47;;;;;;;6.07;3.75;;;;;;;;;;4761724;29;20078;-86
2021/09/13 06:00:12;;;;;;;5.60;3.90;;;;;;;;;;4749365;30;20043;-85
2021/09/13 06:02:38;;;;;;;6.13;4.30;;;;;;;;;;4765575;30;20039;-84
2021/09/13 06:05:04;;;;;;;4.88;3.85;;;;;;;;;;4787805;29;20031;-85
2021/09/13 06:07:29;;;;;;;5.80;3.90;;;;;;;;;;4777212;30;20043;-84
2021/09/13 06:09:55;;;;;;;4.57;3.70;;;;;;;;;;4767414;30;20043;-85
2021/09/13 06:12:20;;;;;;;4.53;3.67;;;;;;;;;;4770628;30;20035;-86
2021/09/13 06:14:46;;;;;;;5.80;3.78;;;;;;;;;;4755812;29;20537;-87
2021/09/13 06:17:12;;;;;;;5.32;4.07;;;;;;;;;;4761811;30;20036;-84
2021/09/13 06:19:37;;;;;;;4.90;3.70;;;;;;;;;;4771764;30;20149;-86
2021/09/13 06:22:03;;;;;;;5.60;4.10;;;;;;;;;;4740850;30;20539;-84
2021/09/13 06:24:30;;;;;;;5.38;4.50;;;;;;;;;;4773072;30;20064;-86
2021/09/13 06:26:55;;;;;;;5.57;4.78;;;;;;;;;;4756819;30;20419;-84
2021/09/13 06:29:21;;;;;;;7.53;5.40;;;;;;;;;;4772313;30;20043;-84
2021/09/13 06:31:46;;;;;;;7.05;5.85;;;;;;;;;;4787590;30;20038;-87
2021/09/13 06:34:15;;;;;;;8.18;6.13;;;;;;;;;;4771990;30;20027;-85
2021/09/13 06:36:43;;;;;;;10.38;7.25;;;;;;;;;;4763727;30;20127;-85
2021/09/13 06:39:09;;;;;;;8.70;6.55;;;;;;;;;;4788275;30;20035;-86
2021/09/13 06:41:34;;;;;;;8.95;6.53;;;;;;;;;;4756017;30;20039;-84
2021/09/13 06:43:59;;;;;;;10.60;7.07;;;;;;;;;;4773389;30;20046;-84
2021/09/13 06:46:33;;;;;;;9.40;6.60;;;;;;;;;;4767692;30;20030;-85
2021/09/13 06:48:59;;;;;;;8.18;6.43;;;;;;;;;;4781110;30;20499;-83
2021/09/13 06:51:25;;;;;;;8.05;6.10;;;;;;;;;;4788736;29;20030;-84
2021/09/13 06:53:50;;;;;;;9.07;6.32;;;;;;;;;;4768500;30;20381;-86
2021/09/13 06:56:15;;;;;;;9.68;7.10;;;;;;;;;;4784104;30;20039;-86
2021/09/13 06:58:41;;;;;;;10.10;7.65;;;;;;;;;;4773308;30;20035;-84
2021/09/13 07:01:07;;;;;;;8.40;6.70;;;;;;;;;;4772576;30;20071;-86
2021/09/13 07:03:32;;;;;;;8.00;6.72;;;;;;;;;;4766566;30;20071;-84
2021/09/13 07:05:58;;;;;;;6.38;5.55;;;;;;;;;;4783847;30;20039;-83
2021/09/13 07:08:23;;;;;;;6.18;5.32;;;;;;;;;;4769765;30;20035;-86
2021/09/13 07:10:49;;;;;;;8.40;5.07;;;;;;;;;;4772510;30;20081;-84
2021/09/13 07:13:14;;;;;;;5.57;4.97;;;;;;;;;;4785285;29;20032;-85
2021/09/13 07:15:40;;;;;;;5.45;4.50;;;;;;;;;;4775275;30;20364;-83
2021/09/13 07:18:06;;;;;;;5.35;4.30;;;;;;;;;;4761035;30;20167;-83
2021/09/13 07:20:31;;;;;;;5.85;4.57;;;;;;;;;;4790607;29;20031;-85
2021/09/13 07:22:57;;;;;;;6.97;4.47;;;;;;;;;;4775623;30;20042;-83
2021/09/13 07:25:23;;;;;;;6.00;5.00;;;;;;;;;;4777173;30;20088;-86
2021/09/13 07:27:48;;;;;;;8.20;5.13;;;;;;;;;;4790148;30;20039;-84
2021/09/13 07:30:14;;;;;;;7.47;5.40;;;;;;;;;;4760760;30;20067;-84
2021/09/13 07:32:40;;;;;;;8.95;5.72;;;;;;;;;;4787539;30;20560;-86
2021/09/13 07:35:08;;;;;;;7.65;5.22;;;;;;;;;;4772050;30;20042;-83
2021/09/13 07:37:38;;;;;;;7.22;5.03;;;;;;;;;;4789862;30;20031;-83
2021/09/13 07:40:05;;;;;;;7.72;5.63;;;;;;;;;;4772670;30;20031;-83
2021/09/13 07:42:31;;;;;;;7.03;5.32;;;;;;;;;;4763523;30;20399;-84
2021/09/13 07:44:57;;;;;;;8.65;5.57;;;;;;;;;;4764353;30;20122;-83
2021/09/13 07:47:23;;;;;;;7.95;6.20;;;;;;;;;;4760932;30;20054;-83
2021/09/13 07:49:48;;;;;;;8.48;6.75;;;;;;;;;;4790886;30;20039;-85
2021/09/13 07:52:14;;;;;;;9.25;6.75;;;;;;;;;;4771377;29;20074;-83
2021/09/13 07:54:39;;;;;;;9.95;7.70;;;;;;;;;;4789445;30;20051;-86
2021/09/13 07:57:05;;;;;;;11.10;9.25;;;;;;;;;;4764123;30;20035;-84
2021/09/13 07:59:30;;;;;;;12.40;11.00;;;;;;;;;;4775504;30;20058;-86
2021/09/13 08:01:56;;;;;;;14.10;11.50;;;;;;;;;;4777717;30;20057;-86
2021/09/13 08:04:21;;;;;;;13.88;12.48;;;;;;;;;;4783017;30;20044;-86
2021/09/13 08:06:47;;;;;;;14.45;11.90;;;;;;;;;;4756047;30;20035;-85
2021/09/13 08:09:12;;;;;;;13.10;9.38;;;;;;;;;;4789558;30;20062;-85
2021/09/13 08:11:37;;;;;;;11.75;9.90;;;;;;;;;;4774735;30;20042;-84
2021/09/13 08:14:03;;;;;;;13.00;8.82;;;;;;;;;;4774467;30;20069;-84
2021/09/13 08:16:29;;;;;;;10.82;8.15;;;;;;;;;;4775482;30;20039;-84
2021/09/13 08:18:57;;;;;;;10.65;8.38;;;;;;;;;;4791207;30;20513;-84
2021/09/13 08:21:22;;;;;;;10.10;8.48;;;;;;;;;;4790874;30;20070;-84
2021/09/13 08:23:48;;;;;;;14.75;9.30;;;;;;;;;;4771113;30;20071;-84
2021/09/13 08:26:16;;;;;;;10.45;7.78;;;;;;;;;;4786780;30;20028;-85
2021/09/13 08:28:41;;;;;;;11.38;8.23;;;;;;;;;;4789454;29;20114;-84
2021/09/13 08:31:07;;;;;;;9.68;7.25;;;;;;;;;;4773576;30;20123;-86
2021/09/13 08:33:34;;;;;;;10.20;7.40;;;;;;;;;;4746035;30;20035;-85
2021/09/13 08:36:00;;;;;;;8.48;6.88;;;;;;;;;;4759316;30;20042;-84
2021/09/13 08:38:28;;;;;;;10.20;5.85;;;;;;;;;;4759379;30;20126;-84
2021/09/13 08:40:53;;;;;;;8.38;5.15;;;;;;;;;;4788679;30;20155;-85
2021/09/13 08:43:19;;;;;;;8.10;4.68;;;;;;;;;;4774294;30;20121;-86
2021/09/13 08:45:52;;;;;;;7.38;4.85;;;;;;;;;;4789500;30;20032;-84
2021/09/13 08:48:28;;;;;;;5.63;3.88;;;;;;;;;;4774092;30;20039;-84
2021/09/13 08:53:35;;;;;;;7.30;3.42;;;;;;;;;;4770468;30;20090;-85
2021/09/13 08:56:03;;;;;;;7.45;3.85;;;;;;;;;;4776439;29;20027;-84
2021/09/13 08:58:33;;;;;;;6.95;2.92;;;;;;;;;;4781284;30;20039;-84
2021/09/13 09:00:58;;;;;;;6.88;3.22;;;;;;;;;;4776341;30;20035;-85
2021/09/13 09:03:25;;;;;;;6.55;3.45;;;;;;;;;;4764967;30;20105;-85
2021/09/13 09:05:52;;;;;;;8.48;4.00;;;;;;;;;;4777072;30;20035;-84
2021/09/13 09:08:31;;;;;;;5.35;2.67;;;;;;;;;;4759397;30;20031;-84
2021/09/13 09:11:00;;;;;;;5.47;2.20;;;;;;;;;;4788034;30;20058;-84
2021/09/13 09:13:36;;;;;;;6.47;2.22;;;;;;;;;;4788371;30;20070;-84
2021/09/13 09:16:04;;;;;;;7.03;2.78;;;;;;;;;;4777224;30;20060;-85
2021/09/13 09:18:41;;;;;;;6.30;2.40;;;;;;;;;;4767438;30;20023;-84
2021/09/13 09:21:13;;;;;;;5.38;2.83;;;;;;;;;;4788274;30;20042;-85
2021/09/13 09:23:59;;;;;;;6.68;3.50;;;;;;;;;;4778013;30;20492;-85
2021/09/13 09:26:26;;;;;;;5.28;2.40;;;;;;;;;;4779009;30;20038;-86
2021/09/13 09:28:52;;;;;;;7.25;3.05;;;;;;;;;;4772795;30;20043;-84
2021/09/13 09:31:41;;;;;;;6.18;3.05;;;;;;;;;;4773129;30;20503;-86
2021/09/13 09:34:19;;;;;;;6.30;3.25;;;;;;;;;;4773508;30;20038;-86
2021/09/13 09:36:57;;;;;;;6.97;2.92;;;;;;;;;;4789045;29;20083;-84
2021/09/13 09:39:28;;;;;;;5.95;3.20;;;;;;;;;;4777077;30;20063;-86
2021/09/13 09:41:56;;;;;;;5.45;2.90;;;;;;;;;;4773193;30;20066;-87
2021/09/13 09:44:22;;;;;;;6.18;2.70;;;;;;;;;;4747042;30;20036;-84
2021/09/13 09:46:47;;;;;;;4.78;2.25;;;;;;;;;;4773360;30;20039;-84
2021/09/13 09:49:22;;;;;;;5.80;1.90;;;;;;;;;;4758662;30;20488;-84
2021/09/13 09:51:52;;;;;;;2.38;1.05;;;;;;;;;;4763496;30;20058;-84
2021/09/13 09:54:18;;;;;;;3.17;1.10;;;;;;;;;;4788863;30;20058;-86
2021/09/13 09:56:46;;;;;;;4.50;1.58;;;;;;;;;;4773446;30;20404;-84
2021/09/13 09:59:13;;;;;;;4.22;1.40;;;;;;;;;;4787517;30;20039;-86
2021/09/13 10:01:46;;;;;;;3.75;1.67;;;;;;;;;;4780210;30;20077;-84
2021/09/13 10:04:17;;;;;;;5.65;2.30;;;;;;;;;;4768054;30;20031;-84
2021/09/13 10:06:45;;;;;;;4.18;2.20;;;;;;;;;;4773557;30;20070;-84
2021/09/13 10:09:11;;;;;;;6.60;2.08;;;;;;;;;;4789721;30;20031;-84
2021/09/13 10:11:41;;;;;;;3.55;1.50;;;;;;;;;;4789152;30;20514;-84
2021/09/13 10:14:12;;;;;;;3.28;1.50;;;;;;;;;;4773858;30;20444;-83
2021/09/13 10:16:39;;;;;;;2.72;1.50;;;;;;;;;;4775583;30;20650;-86
2021/09/13 10:19:05;;;;;;;6.13;2.10;;;;;;;;;;4784968;30;20046;-86
2021/09/13 10:21:31;;;;;;;5.53;2.38;;;;;;;;;;4787223;30;20031;-85
2021/09/13 10:23:57;;;;;;;5.10;2.50;;;;;;;;;;4782211;30;20046;-85
2021/09/13 10:26:23;;;;;;;4.68;2.60;;;;;;;;;;4788143;30;20085;-86
2021/09/13 10:29:01;;;;;;;6.13;2.50;;;;;;;;;;4765676;30;20047;-85
2021/09/13 10:31:41;;;;;;;5.75;2.17;;;;;;;;;;4786410;30;20031;-86
2021/09/13 10:34:30;;;;;;;4.18;1.70;;;;;;;;;;4768202;30;20031;-84
2021/09/13 10:37:10;;;;;;;3.40;1.70;;;;;;;;;;4788917;30;20031;-85
2021/09/13 10:39:58;;;;;;;6.47;2.35;;;;;;;;;;4782518;30;20092;-85
2021/09/13 10:42:33;;;;;;;8.13;2.00;;;;;;;;;;4786678;30;20024;-84
2021/09/13 10:45:27;;;;;;;5.30;2.00;;;;;;;;;;4773177;30;20350;-84
2021/09/13 10:47:59;;;;;;;4.20;2.20;;;;;;;;;;4771727;29;20055;-83
2021/09/13 10:50:35;;;;;;;3.53;2.08;;;;;;;;;;4786995;30;20027;-85
2021/09/13 10:53:21;;;;;;;4.00;1.33;;;;;;;;;;4775567;30;20055;-83
2021/09/13 10:55:52;;;;;;;2.42;1.13;;;;;;;;;;4776147;30;20039;-86
2021/09/13 10:58:37;;;;;;;2.47;1.40;;;;;;;;;;4781366;30;20027;-86
2021/09/13 11:01:08;;;;;;;3.42;1.20;;;;;;;;;;4786097;30;20043;-84
2021/09/13 11:03:36;;;;;;;4.07;1.60;;;;;;;;;;4761262;30;20074;-86
2021/09/13 11:06:12;;;;;;;4.05;1.60;;;;;;;;;;4790381;30;20027;-85
2021/09/13 11:08:47;;;;;;;3.38;1.55;;;;;;;;;;4776314;30;20035;-86
2021/09/13 11:11:14;;;;;;;3.28;1.45;;;;;;;;;;4763960;30;20133;-86
2021/09/13 11:13:40;;;;;;;4.13;1.33;;;;;;;;;;4772543;30;20059;-86
2021/09/13 11:16:07;;;;;;;2.75;1.40;;;;;;;;;;4760929;30;20028;-83
2021/09/13 11:18:34;;;;;;;4.30;1.83;;;;;;;;;;4790643;30;20046;-83
2021/09/13 11:21:30;;;;;;;4.10;1.50;;;;;;;;;;4792872;30;20148;-85
2021/09/13 11:23:56;;;;;;;3.95;1.80;;;;;;;;;;4775223;30;20079;-85
2021/09/13 11:26:35;;;;;;;3.53;1.70;;;;;;;;;;4775335;30;20035;-83
2021/09/13 11:29:05;;;;;;;5.63;1.77;;;;;;;;;;4776294;30;20047;-83
2021/09/13 11:31:44;;;;;;;3.15;1.70;;;;;;;;;;4790073;30;20392;-84
2021/09/13 11:34:13;;;;;;;4.80;1.77;;;;;;;;;;4792505;30;20023;-84
2021/09/13 11:36:39;;;;;;;4.93;2.22;;;;;;;;;;4775030;30;20069;-84
2021/09/13 11:39:07;;;;;;;5.15;2.25;;;;;;;;;;4763382;30;20039;-86
2021/09/13 11:41:34;;;;;;;3.75;1.90;;;;;;;;;;4775585;30;20039;-85
2021/09/13 11:43:59;;;;;;;5.20;2.30;;;;;;;;;;4791574;30;20055;-85
2021/09/13 11:46:25;;;;;;;4.72;2.20;;;;;;;;;;4789769;30;20108;-86
2021/09/13 11:48:51;;;;;;;5.05;2.35;;;;;;;;;;4775046;30;20035;-83
2021/09/13 11:51:16;;;;;;;5.38;2.80;;;;;;;;;;4774910;30;20034;-84
2021/09/13 11:53:42;;;;;;;6.63;2.47;;;;;;;;;;4775212;30;20525;-83
2021/09/13 11:56:11;;;;;;;5.47;3.10;;;;;;;;;;4775307;30;20040;-84
2021/09/13 11:58:45;;;;;;;6.20;3.28;;;;;;;;;;4766281;30;20035;-85
2021/09/13 12:01:21;;;;;;;8.23;3.15;;;;;;;;;;4753807;30;20032;-83
2021/09/13 12:03:46;;;;;;;5.53;3.00;;;;;;;;;;4788341;30;20047;-84
2021/09/13 12:06:19;;;;;;;5.13;2.90;;;;;;;;;;4760289;30;20553;-83
2021/09/13 12:08:45;;;;;;;5.50;2.55;;;;;;;;;;4772339;30;20044;-83
2021/09/13 12:11:13;;;;;;;5.53;2.55;;;;;;;;;;4760210;30;20130;-84
2021/09/13 12:13:39;;;;;;;5.10;2.72;;;;;;;;;;4789641;29;20035;-84
2021/09/13 12:16:09;;;;;;;4.00;2.20;;;;;;;;;;4760173;30;20147;-83
2021/09/13 12:18:34;;;;;;;6.22;2.35;;;;;;;;;;4775191;30;20039;-85
2021/09/13 12:21:00;;;;;;;4.30;2.25;;;;;;;;;;4754756;30;20041;-84
2021/09/13 12:23:38;;;;;;;4.60;2.20;;;;;;;;;;4775011;30;20035;-85
2021/09/13 12:26:04;;;;;;;4.20;2.55;;;;;;;;;;4748242;30;20046;-83
2021/09/13 12:28:34;;;;;;;5.70;2.47;;;;;;;;;;4759366;30;20411;-84
2021/09/13 12:31:09;;;;;;;2.63;1.80;;;;;;;;;;4777526;30;20114;-86
2021/09/13 12:33:39;;;;;;;3.65;2.28;;;;;;;;;;4785020;30;20035;-84
2021/09/13 12:36:13;;;;;;;4.07;2.22;;;;;;;;;;4774447;30;20023;-84
2021/09/13 12:38:44;;;;;;;6.43;2.60;;;;;;;;;;4777791;30;20043;-84
2021/09/13 12:41:11;;;;;;;4.90;2.15;;;;;;;;;;4789426;30;20039;-84
2021/09/13 12:43:44;;;;;;;4.40;2.42;;;;;;;;;;4774122;30;20446;-84
2021/09/13 12:46:12;;;;;;;4.68;2.45;;;;;;;;;;4789136;30;20054;-85
2021/09/13 12:48:45;;;;;;;5.97;3.10;;;;;;;;;;4789623;30;20060;-87
2021/09/13 12:51:20;;;;;;;4.38;2.60;;;;;;;;;;4770209;30;20055;-83
2021/09/13 12:54:00;;;;;;;3.80;2.58;;;;;;;;;;4757224;30;20063;-83
2021/09/13 12:56:27;;;;;;;6.43;2.95;;;;;;;;;;4786937;30;20027;-86
2021/09/13 12:59:25;;;;;;;5.25;2.90;;;;;;;;;;4773840;30;20031;-84
2021/09/13 13:01:51;;;;;;;6.30;2.90;;;;;;;;;;4789309;30;20035;-83
2021/09/13 13:04:19;;;;;;;5.22;3.03;;;;;;;;;;4789381;30;20096;-84
2021/09/13 13:06:47;;;;;;;4.88;2.67;;;;;;;;;;4791040;30;20027;-85
2021/09/13 13:09:17;;;;;;;5.75;2.75;;;;;;;;;;4776423;30;20053;-86
2021/09/13 13:11:42;;;;;;;4.53;2.85;;;;;;;;;;4781701;29;20039;-84
2021/09/13 13:14:08;;;;;;;4.75;2.78;;;;;;;;;;4787378;29;20130;-83
2021/09/13 13:16:36;;;;;;;6.72;3.08;;;;;;;;;;4786068;30;20061;-84
2021/09/13 13:19:01;;;;;;;6.57;3.08;;;;;;;;;;4786153;29;20122;-85
2021/09/13 13:21:27;;;;;;;6.20;2.67;;;;;;;;;;4755796;30;20551;-84
2021/09/13 13:23:52;;;;;;;3.47;2.28;;;;;;;;;;4769400;30;20039;-84
2021/09/13 13:26:18;;;;;;;5.22;2.67;;;;;;;;;;4743421;30;20035;-84
2021/09/13 13:28:44;;;;;;;6.13;3.08;;;;;;;;;;4766990;30;20075;-83
2021/09/13 13:31:09;;;;;;;5.18;2.70;;;;;;;;;;4750928;30;20062;-83
2021/09/13 13:33:35;;;;;;;4.78;2.28;;;;;;;;;;4784327;30;20064;-85
2021/09/13 13:36:00;;;;;;;5.75;2.50;;;;;;;;;;4768135;30;20120;-84
2021/09/13 13:38:26;;;;;;;6.32;2.72;;;;;;;;;;4770575;30;20094;-83
2021/09/13 13:40:51;;;;;;;6.15;2.70;;;;;;;;;;4769492;30;20126;-85
2021/09/13 13:43:17;;;;;;;4.95;2.80;;;;;;;;;;4749883;30;20119;-84
2021/09/13 13:45:42;;;;;;;6.03;3.10;;;;;;;;;;4767294;30;20039;-83
2021/09/13 13:48:08;;;;;;;4.50;2.78;;;;;;;;;;4786270;30;20124;-85
2021/09/13 13:50:34;;;;;;;5.18;2.78;;;;;;;;;;4770830;30;20032;-83
2021/09/13 13:52:59;;;;;;;6.03;2.70;;;;;;;;;;4754367;30;20059;-83
2021/09/13 13:55:28;;;;;;;3.85;2.38;;;;;;;;;;4756011;30;20038;-84
2021/09/13 13:57:53;;;;;;;5.63;2.42;;;;;;;;;;4749173;30;20050;-85
2021/09/13 14:00:19;;;;;;;4.80;2.10;;;;;;;;;;4739353;30;20479;-85
2021/09/13 14:02:45;;;;;;;5.68;2.22;;;;;;;;;;4765060;30;20035;-85
2021/09/13 14:05:13;;;;;;;4.75;2.20;;;;;;;;;;4756371;30;20032;-86
2021/09/13 14:07:39;;;;;;;4.00;1.80;;;;;;;;;;4772061;30;20147;-83
2021/09/13 14:10:06;;;;;;;7.38;2.30;;;;;;;;;;4753950;30;20077;-84
2021/09/13 14:12:32;;;;;;;5.15;2.50;;;;;;;;;;4784044;30;20082;-86
2021/09/13 14:14:57;;;;;;;5.63;2.35;;;;;;;;;;4772666;30;20059;-84
2021/09/13 14:17:22;;;;;;;4.60;2.20;;;;;;;;;;4778713;30;20136;-85
2021/09/13 14:19:48;;;;;;;5.82;2.50;;;;;;;;;;4761289;30;20043;-86
2021/09/13 14:22:13;;;;;;;3.35;1.65;;;;;;;;;;4750612;30;20035;-84
2021/09/13 14:24:39;;;;;;;4.45;1.70;;;;;;;;;;4766866;30;20044;-86
2021/09/13 14:27:05;;;;;;;4.47;1.80;;;;;;;;;;4787276;29;20096;-84
2021/09/13 14:29:30;;;;;;;4.93;2.05;;;;;;;;;;4772452;30;20112;-85
2021/09/13 14:31:56;;;;;;;8.07;1.95;;;;;;;;;;4769922;30;20067;-84
2021/09/13 14:34:24;;;;;;;5.10;1.85;;;;;;;;;;4768419;30;20054;-85
2021/09/13 14:36:53;;;;;;;5.50;2.30;;;;;;;;;;4762943;30;20126;-86
2021/09/13 14:39:18;;;;;;;3.75;1.90;;;;;;;;;;4758702;30;20499;-86
2021/09/13 14:41:46;;;;;;;4.50;2.10;;;;;;;;;;4770843;30;20067;-84
2021/09/13 14:44:13;;;;;;;3.97;2.08;;;;;;;;;;4741910;30;20050;-84
2021/09/13 14:46:38;;;;;;;3.58;1.88;;;;;;;;;;4742974;30;20040;-85